sensor_id;sensor_type;location;lat;lon;timestamp;P1;durP1;ratioP1;P2;durP2;ratioP2
62687;SDS011;48752;51.056;17.056;2023-02-28T00:00:20;35.35;;;17.60;;
62687;SDS011;48752;51.056;17.056;2023-02-28T00:02:46;38.28;;;17.75;;
62687;SDS011;48752;51.056;17.056;2023-02-28T00:05:12;38.80;;;15.98;;
62687;SDS011;48752;51.056;17.056;2023-02-28T00:07:39;34.45;;;17.52;;
62687;SDS011;48752;51.056;17.056;2023-02-28T00:10:05;38.17;;;15.90;;
62687;SDS011;48752;51.056;17.056;2023-02-28T00:12:32;32.45;;;16.27;;
62687;SDS011;48752;51.056;17.056;2023-02-28T00:14:58;37.17;;;16.80;;
62687;SDS011;48752;51.056;17.056;2023-02-28T00:17:24;37.10;;;17.48;;
62687;SDS011;48752;51.056;17.056;2023-02-28T00:19:50;35.58;;;15.57;;
62687;SDS011;48752;51.056;17.056;2023-02-28T00:22:16;34.08;;;15.88;;
62687;SDS011;48752;51.056;17.056;2023-02-28T00:24:43;28.17;;;15.32;;
62687;SDS011;48752;51.056;17.056;2023-02-28T00:27:09;33.83;;;15.48;;
62687;SDS011;48752;51.056;17.056;2023-02-28T00:29:35;34.60;;;16.70;;
62687;SDS011;48752;51.056;17.056;2023-02-28T00:32:00;29.38;;;14.75;;
62687;SDS011;48752;51.056;17.056;2023-02-28T00:34:26;28.48;;;15.35;;
62687;SDS011;48752;51.056;17.056;2023-02-28T00:36:52;32.28;;;14.98;;
62687;SDS011;48752;51.056;17.056;2023-02-28T00:39:17;32.70;;;15.07;;
62687;SDS011;48752;51.056;17.056;2023-02-28T00:41:42;30.75;;;14.70;;
62687;SDS011;48752;51.056;17.056;2023-02-28T00:44:08;34.72;;;16.35;;
62687;SDS011;48752;51.056;17.056;2023-02-28T00:46:34;35.38;;;16.33;;
62687;SDS011;48752;51.056;17.056;2023-02-28T00:48:59;34.15;;;16.65;;
62687;SDS011;48752;51.056;17.056;2023-02-28T00:51:25;35.20;;;15.32;;
62687;SDS011;48752;51.056;17.056;2023-02-28T00:53:50;44.67;;;16.42;;
62687;SDS011;48752;51.056;17.056;2023-02-28T00:56:15;37.92;;;17.55;;
62687;SDS011;48752;51.056;17.056;2023-02-28T00:58:41;30.23;;;15.05;;
62687;SDS011;48752;51.056;17.056;2023-02-28T01:01:06;35.47;;;17.30;;
62687;SDS011;48752;51.056;17.056;2023-02-28T01:03:32;30.40;;;14.40;;
62687;SDS011;48752;51.056;17.056;2023-02-28T01:05:57;29.33;;;13.77;;
62687;SDS011;48752;51.056;17.056;2023-02-28T01:08:23;33.38;;;15.68;;
62687;SDS011;48752;51.056;17.056;2023-02-28T01:10:48;33.00;;;16.90;;
62687;SDS011;48752;51.056;17.056;2023-02-28T01:13:14;28.20;;;14.18;;
62687;SDS011;48752;51.056;17.056;2023-02-28T01:15:40;25.17;;;13.23;;
62687;SDS011;48752;51.056;17.056;2023-02-28T01:18:08;32.15;;;13.82;;
62687;SDS011;48752;51.056;17.056;2023-02-28T01:20:36;28.52;;;13.80;;
62687;SDS011;48752;51.056;17.056;2023-02-28T01:23:02;34.30;;;15.25;;
62687;SDS011;48752;51.056;17.056;2023-02-28T01:25:27;35.60;;;13.77;;
62687;SDS011;48752;51.056;17.056;2023-02-28T01:27:53;28.30;;;14.48;;
62687;SDS011;48752;51.056;17.056;2023-02-28T01:30:18;29.65;;;14.75;;
62687;SDS011;48752;51.056;17.056;2023-02-28T01:32:44;28.38;;;14.05;;
62687;SDS011;48752;51.056;17.056;2023-02-28T01:35:09;25.25;;;13.48;;
62687;SDS011;48752;51.056;17.056;2023-02-28T01:37:35;25.58;;;14.45;;
62687;SDS011;48752;51.056;17.056;2023-02-28T01:40:00;27.67;;;14.55;;
62687;SDS011;48752;51.056;17.056;2023-02-28T01:42:26;31.33;;;14.82;;
62687;SDS011;48752;51.056;17.056;2023-02-28T01:45:06;30.15;;;14.57;;
62687;SDS011;48752;51.056;17.056;2023-02-28T01:47:43;31.90;;;13.95;;
62687;SDS011;48752;51.056;17.056;2023-02-28T01:50:09;29.75;;;13.85;;
62687;SDS011;48752;51.056;17.056;2023-02-28T01:52:56;32.90;;;14.55;;
62687;SDS011;48752;51.056;17.056;2023-02-28T01:55:22;32.22;;;14.90;;
62687;SDS011;48752;51.056;17.056;2023-02-28T01:57:50;29.30;;;15.02;;
62687;SDS011;48752;51.056;17.056;2023-02-28T02:00:18;38.63;;;15.32;;
62687;SDS011;48752;51.056;17.056;2023-02-28T02:02:46;28.13;;;13.60;;
62687;SDS011;48752;51.056;17.056;2023-02-28T02:05:17;30.50;;;13.95;;
62687;SDS011;48752;51.056;17.056;2023-02-28T02:07:50;32.80;;;15.02;;
62687;SDS011;48752;51.056;17.056;2023-02-28T02:10:18;28.17;;;13.75;;
62687;SDS011;48752;51.056;17.056;2023-02-28T02:15:34;35.38;;;15.38;;
62687;SDS011;48752;51.056;17.056;2023-02-28T02:18:03;37.00;;;14.82;;
62687;SDS011;48752;51.056;17.056;2023-02-28T02:36:23;30.63;;;15.20;;
62687;SDS011;48752;51.056;17.056;2023-02-28T02:39:02;32.03;;;15.15;;
62687;SDS011;48752;51.056;17.056;2023-02-28T02:41:35;32.05;;;14.50;;
62687;SDS011;48752;51.056;17.056;2023-02-28T02:46:47;26.00;;;13.18;;
62687;SDS011;48752;51.056;17.056;2023-02-28T02:49:18;27.13;;;13.75;;
62687;SDS011;48752;51.056;17.056;2023-02-28T02:51:46;28.45;;;14.15;;
62687;SDS011;48752;51.056;17.056;2023-02-28T02:54:13;26.63;;;13.57;;
62687;SDS011;48752;51.056;17.056;2023-02-28T02:56:43;29.77;;;14.15;;
62687;SDS011;48752;51.056;17.056;2023-02-28T02:59:11;31.23;;;13.82;;
62687;SDS011;48752;51.056;17.056;2023-02-28T03:01:38;26.50;;;13.57;;
62687;SDS011;48752;51.056;17.056;2023-02-28T03:04:06;30.15;;;14.32;;
62687;SDS011;48752;51.056;17.056;2023-02-28T03:06:33;33.15;;;15.63;;
62687;SDS011;48752;51.056;17.056;2023-02-28T03:09:00;32.38;;;14.07;;
62687;SDS011;48752;51.056;17.056;2023-02-28T03:11:25;28.48;;;13.05;;
62687;SDS011;48752;51.056;17.056;2023-02-28T03:19:06;33.85;;;16.17;;
62687;SDS011;48752;51.056;17.056;2023-02-28T03:21:35;35.03;;;14.15;;
62687;SDS011;48752;51.056;17.056;2023-02-28T03:24:04;29.60;;;15.77;;
62687;SDS011;48752;51.056;17.056;2023-02-28T03:26:34;33.75;;;14.68;;
62687;SDS011;48752;51.056;17.056;2023-02-28T03:36:43;33.97;;;15.90;;
62687;SDS011;48752;51.056;17.056;2023-02-28T03:39:20;34.92;;;16.45;;
62687;SDS011;48752;51.056;17.056;2023-02-28T03:42:08;29.25;;;14.23;;
62687;SDS011;48752;51.056;17.056;2023-02-28T03:44:48;29.33;;;14.40;;
62687;SDS011;48752;51.056;17.056;2023-02-28T03:47:16;33.25;;;14.75;;
62687;SDS011;48752;51.056;17.056;2023-02-28T03:49:54;34.08;;;14.02;;
62687;SDS011;48752;51.056;17.056;2023-02-28T03:52:33;31.15;;;14.18;;
62687;SDS011;48752;51.056;17.056;2023-02-28T03:55:01;34.30;;;15.13;;
62687;SDS011;48752;51.056;17.056;2023-02-28T03:57:37;40.95;;;17.67;;
62687;SDS011;48752;51.056;17.056;2023-02-28T04:00:05;31.38;;;16.02;;
62687;SDS011;48752;51.056;17.056;2023-02-28T04:02:43;35.67;;;16.70;;
62687;SDS011;48752;51.056;17.056;2023-02-28T04:05:08;31.67;;;14.60;;
62687;SDS011;48752;51.056;17.056;2023-02-28T04:07:34;30.25;;;16.73;;
62687;SDS011;48752;51.056;17.056;2023-02-28T04:09:59;29.83;;;14.38;;
62687;SDS011;48752;51.056;17.056;2023-02-28T04:12:25;29.63;;;14.27;;
62687;SDS011;48752;51.056;17.056;2023-02-28T04:14:50;37.13;;;16.27;;
62687;SDS011;48752;51.056;17.056;2023-02-28T04:17:16;30.40;;;15.70;;
62687;SDS011;48752;51.056;17.056;2023-02-28T04:19:42;37.15;;;14.68;;
62687;SDS011;48752;51.056;17.056;2023-02-28T04:22:08;23.17;;;12.68;;
62687;SDS011;48752;51.056;17.056;2023-02-28T04:24:33;32.13;;;13.60;;
62687;SDS011;48752;51.056;17.056;2023-02-28T04:26:59;26.77;;;13.25;;
62687;SDS011;48752;51.056;17.056;2023-02-28T04:29:26;27.50;;;14.70;;
62687;SDS011;48752;51.056;17.056;2023-02-28T04:31:52;32.25;;;14.40;;
62687;SDS011;48752;51.056;17.056;2023-02-28T04:34:19;34.33;;;14.73;;
62687;SDS011;48752;51.056;17.056;2023-02-28T04:36:46;29.80;;;13.05;;
62687;SDS011;48752;51.056;17.056;2023-02-28T04:39:13;26.13;;;13.60;;
62687;SDS011;48752;51.056;17.056;2023-02-28T04:41:40;21.55;;;12.80;;
62687;SDS011;48752;51.056;17.056;2023-02-28T04:44:05;26.85;;;12.15;;
62687;SDS011;48752;51.056;17.056;2023-02-28T04:46:31;26.88;;;13.45;;
62687;SDS011;48752;51.056;17.056;2023-02-28T04:48:56;26.38;;;13.07;;
62687;SDS011;48752;51.056;17.056;2023-02-28T04:51:24;28.98;;;13.52;;
62687;SDS011;48752;51.056;17.056;2023-02-28T04:53:52;28.95;;;14.48;;
62687;SDS011;48752;51.056;17.056;2023-02-28T04:56:20;28.67;;;14.13;;
62687;SDS011;48752;51.056;17.056;2023-02-28T04:58:46;25.42;;;13.35;;
62687;SDS011;48752;51.056;17.056;2023-02-28T05:01:28;25.35;;;12.77;;
62687;SDS011;48752;51.056;17.056;2023-02-28T05:03:56;19.52;;;11.52;;
62687;SDS011;48752;51.056;17.056;2023-02-28T05:06:32;24.00;;;13.13;;
62687;SDS011;48752;51.056;17.056;2023-02-28T05:08:58;31.48;;;13.30;;
62687;SDS011;48752;51.056;17.056;2023-02-28T05:11:26;34.28;;;15.18;;
62687;SDS011;48752;51.056;17.056;2023-02-28T05:14:01;38.30;;;18.05;;
62687;SDS011;48752;51.056;17.056;2023-02-28T05:16:28;34.50;;;17.25;;
62687;SDS011;48752;51.056;17.056;2023-02-28T05:18:54;35.03;;;14.57;;
62687;SDS011;48752;51.056;17.056;2023-02-28T05:21:35;37.47;;;16.63;;
62687;SDS011;48752;51.056;17.056;2023-02-28T05:26:51;34.20;;;17.40;;
62687;SDS011;48752;51.056;17.056;2023-02-28T05:29:37;36.63;;;18.10;;
62687;SDS011;48752;51.056;17.056;2023-02-28T05:32:08;37.33;;;16.80;;
62687;SDS011;48752;51.056;17.056;2023-02-28T05:34:53;37.78;;;17.38;;
62687;SDS011;48752;51.056;17.056;2023-02-28T05:37:21;32.30;;;15.30;;
62687;SDS011;48752;51.056;17.056;2023-02-28T05:39:47;31.58;;;15.27;;
62687;SDS011;48752;51.056;17.056;2023-02-28T05:42:16;36.30;;;16.92;;
62687;SDS011;48752;51.056;17.056;2023-02-28T05:44:41;36.47;;;17.27;;
62687;SDS011;48752;51.056;17.056;2023-02-28T05:47:07;36.53;;;16.05;;
62687;SDS011;48752;51.056;17.056;2023-02-28T05:49:32;34.83;;;16.38;;
62687;SDS011;48752;51.056;17.056;2023-02-28T05:51:58;23.88;;;14.48;;
62687;SDS011;48752;51.056;17.056;2023-02-28T05:54:23;33.55;;;16.10;;
62687;SDS011;48752;51.056;17.056;2023-02-28T05:56:51;25.63;;;13.48;;
62687;SDS011;48752;51.056;17.056;2023-02-28T05:59:16;27.17;;;14.68;;
62687;SDS011;48752;51.056;17.056;2023-02-28T06:01:44;28.00;;;15.40;;
62687;SDS011;48752;51.056;17.056;2023-02-28T06:04:15;33.20;;;15.52;;
62687;SDS011;48752;51.056;17.056;2023-02-28T06:06:48;27.58;;;13.55;;
62687;SDS011;48752;51.056;17.056;2023-02-28T06:09:15;27.75;;;13.10;;
62687;SDS011;48752;51.056;17.056;2023-02-28T06:12:02;29.50;;;13.70;;
62687;SDS011;48752;51.056;17.056;2023-02-28T06:14:31;28.42;;;14.35;;
62687;SDS011;48752;51.056;17.056;2023-02-28T06:17:18;33.15;;;16.40;;
62687;SDS011;48752;51.056;17.056;2023-02-28T06:19:45;30.20;;;14.52;;
62687;SDS011;48752;51.056;17.056;2023-02-28T06:22:23;32.47;;;16.23;;
62687;SDS011;48752;51.056;17.056;2023-02-28T06:24:50;35.38;;;15.95;;
62687;SDS011;48752;51.056;17.056;2023-02-28T06:27:18;32.42;;;16.13;;
62687;SDS011;48752;51.056;17.056;2023-02-28T06:29:53;35.58;;;18.38;;
62687;SDS011;48752;51.056;17.056;2023-02-28T06:32:21;37.67;;;18.75;;
62687;SDS011;48752;51.056;17.056;2023-02-28T06:34:47;40.10;;;19.50;;
62687;SDS011;48752;51.056;17.056;2023-02-28T06:37:12;41.55;;;18.10;;
62687;SDS011;48752;51.056;17.056;2023-02-28T06:39:38;44.00;;;19.17;;
62687;SDS011;48752;51.056;17.056;2023-02-28T06:42:04;40.15;;;18.95;;
62687;SDS011;48752;51.056;17.056;2023-02-28T06:44:29;38.55;;;18.42;;
62687;SDS011;48752;51.056;17.056;2023-02-28T06:47:00;37.83;;;17.88;;
62687;SDS011;48752;51.056;17.056;2023-02-28T06:49:28;35.22;;;16.38;;
62687;SDS011;48752;51.056;17.056;2023-02-28T06:51:54;29.00;;;15.00;;
62687;SDS011;48752;51.056;17.056;2023-02-28T06:54:19;27.02;;;14.55;;
62687;SDS011;48752;51.056;17.056;2023-02-28T06:56:45;37.03;;;15.30;;
62687;SDS011;48752;51.056;17.056;2023-02-28T06:59:12;32.95;;;15.57;;
62687;SDS011;48752;51.056;17.056;2023-02-28T07:01:37;37.88;;;15.57;;
62687;SDS011;48752;51.056;17.056;2023-02-28T07:04:04;27.42;;;13.23;;
62687;SDS011;48752;51.056;17.056;2023-02-28T07:06:30;22.27;;;12.15;;
62687;SDS011;48752;51.056;17.056;2023-02-28T07:08:57;31.15;;;13.23;;
62687;SDS011;48752;51.056;17.056;2023-02-28T07:11:24;25.80;;;12.60;;
62687;SDS011;48752;51.056;17.056;2023-02-28T07:13:51;28.23;;;13.90;;
62687;SDS011;48752;51.056;17.056;2023-02-28T07:16:18;26.00;;;13.52;;
62687;SDS011;48752;51.056;17.056;2023-02-28T07:18:45;23.48;;;13.77;;
62687;SDS011;48752;51.056;17.056;2023-02-28T07:21:11;22.98;;;12.75;;
62687;SDS011;48752;51.056;17.056;2023-02-28T07:23:37;28.90;;;12.82;;
62687;SDS011;48752;51.056;17.056;2023-02-28T07:26:04;23.67;;;10.98;;
62687;SDS011;48752;51.056;17.056;2023-02-28T07:28:32;19.30;;;10.70;;
62687;SDS011;48752;51.056;17.056;2023-02-28T07:31:04;19.23;;;9.85;;
62687;SDS011;48752;51.056;17.056;2023-02-28T07:33:31;16.58;;;8.30;;
62687;SDS011;48752;51.056;17.056;2023-02-28T07:36:05;11.85;;;7.93;;
62687;SDS011;48752;51.056;17.056;2023-02-28T07:38:36;14.77;;;8.27;;
62687;SDS011;48752;51.056;17.056;2023-02-28T07:41:02;16.05;;;7.85;;
62687;SDS011;48752;51.056;17.056;2023-02-28T07:43:32;13.80;;;8.90;;
62687;SDS011;48752;51.056;17.056;2023-02-28T07:46:08;12.60;;;8.77;;
62687;SDS011;48752;51.056;17.056;2023-02-28T07:48:36;10.27;;;8.30;;
62687;SDS011;48752;51.056;17.056;2023-02-28T07:51:02;13.55;;;8.68;;
62687;SDS011;48752;51.056;17.056;2023-02-28T07:53:28;12.82;;;9.40;;
62687;SDS011;48752;51.056;17.056;2023-02-28T07:55:55;15.18;;;9.45;;
62687;SDS011;48752;51.056;17.056;2023-02-28T07:58:28;20.52;;;11.60;;
62687;SDS011;48752;51.056;17.056;2023-02-28T08:01:07;16.27;;;10.45;;
62687;SDS011;48752;51.056;17.056;2023-02-28T08:03:35;14.48;;;10.18;;
62687;SDS011;48752;51.056;17.056;2023-02-28T08:06:02;16.17;;;11.00;;
62687;SDS011;48752;51.056;17.056;2023-02-28T08:08:31;12.60;;;9.13;;
62687;SDS011;48752;51.056;17.056;2023-02-28T08:11:00;12.45;;;9.18;;
62687;SDS011;48752;51.056;17.056;2023-02-28T08:13:28;12.55;;;9.45;;
62687;SDS011;48752;51.056;17.056;2023-02-28T08:15:54;7.60;;;6.40;;
62687;SDS011;48752;51.056;17.056;2023-02-28T08:18:22;10.68;;;7.80;;
62687;SDS011;48752;51.056;17.056;2023-02-28T08:20:48;10.90;;;8.13;;
62687;SDS011;48752;51.056;17.056;2023-02-28T08:23:14;15.57;;;8.90;;
62687;SDS011;48752;51.056;17.056;2023-02-28T08:25:40;13.10;;;9.35;;
62687;SDS011;48752;51.056;17.056;2023-02-28T08:28:06;12.15;;;8.65;;
62687;SDS011;48752;51.056;17.056;2023-02-28T08:30:33;15.70;;;9.63;;
62687;SDS011;48752;51.056;17.056;2023-02-28T08:32:59;12.77;;;8.85;;
62687;SDS011;48752;51.056;17.056;2023-02-28T08:35:26;17.58;;;9.10;;
62687;SDS011;48752;51.056;17.056;2023-02-28T08:37:52;12.90;;;9.52;;
62687;SDS011;48752;51.056;17.056;2023-02-28T08:40:19;15.23;;;9.77;;
62687;SDS011;48752;51.056;17.056;2023-02-28T08:42:49;16.50;;;9.68;;
62687;SDS011;48752;51.056;17.056;2023-02-28T08:45:17;13.15;;;9.98;;
62687;SDS011;48752;51.056;17.056;2023-02-28T08:47:43;16.02;;;11.18;;
62687;SDS011;48752;51.056;17.056;2023-02-28T08:50:10;13.65;;;9.82;;
62687;SDS011;48752;51.056;17.056;2023-02-28T08:52:37;17.23;;;10.07;;
62687;SDS011;48752;51.056;17.056;2023-02-28T08:55:03;12.88;;;9.95;;
62687;SDS011;48752;51.056;17.056;2023-02-28T08:57:35;18.35;;;9.27;;
62687;SDS011;48752;51.056;17.056;2023-02-28T09:00:16;12.02;;;9.20;;
62687;SDS011;48752;51.056;17.056;2023-02-28T09:02:45;14.10;;;9.90;;
62687;SDS011;48752;51.056;17.056;2023-02-28T09:05:12;17.48;;;10.88;;
62687;SDS011;48752;51.056;17.056;2023-02-28T09:07:40;12.63;;;7.53;;
62687;SDS011;48752;51.056;17.056;2023-02-28T09:10:08;10.13;;;7.50;;
62687;SDS011;48752;51.056;17.056;2023-02-28T09:12:34;11.85;;;8.43;;
62687;SDS011;48752;51.056;17.056;2023-02-28T09:15:01;13.63;;;7.80;;
62687;SDS011;48752;51.056;17.056;2023-02-28T09:17:36;8.52;;;6.10;;
62687;SDS011;48752;51.056;17.056;2023-02-28T09:20:01;11.00;;;5.55;;
62687;SDS011;48752;51.056;17.056;2023-02-28T09:22:28;9.55;;;5.18;;
62687;SDS011;48752;51.056;17.056;2023-02-28T09:24:54;8.15;;;5.28;;
62687;SDS011;48752;51.056;17.056;2023-02-28T09:27:20;6.03;;;4.93;;
62687;SDS011;48752;51.056;17.056;2023-02-28T09:29:45;11.25;;;6.50;;
62687;SDS011;48752;51.056;17.056;2023-02-28T09:32:12;8.60;;;5.95;;
62687;SDS011;48752;51.056;17.056;2023-02-28T09:34:40;8.63;;;4.78;;
62687;SDS011;48752;51.056;17.056;2023-02-28T09:37:06;12.25;;;5.13;;
62687;SDS011;48752;51.056;17.056;2023-02-28T09:39:32;10.85;;;5.60;;
62687;SDS011;48752;51.056;17.056;2023-02-28T09:42:20;9.95;;;5.35;;
62687;SDS011;48752;51.056;17.056;2023-02-28T09:44:48;10.88;;;5.60;;
62687;SDS011;48752;51.056;17.056;2023-02-28T09:53:02;9.80;;;6.03;;
62687;SDS011;48752;51.056;17.056;2023-02-28T09:55:37;7.97;;;6.25;;
62687;SDS011;48752;51.056;17.056;2023-02-28T09:58:08;11.00;;;6.78;;
62687;SDS011;48752;51.056;17.056;2023-02-28T10:10:22;8.48;;;5.97;;
62687;SDS011;48752;51.056;17.056;2023-02-28T10:13:02;16.25;;;7.93;;
62687;SDS011;48752;51.056;17.056;2023-02-28T10:15:32;17.20;;;8.45;;
62687;SDS011;48752;51.056;17.056;2023-02-28T10:18:03;8.98;;;6.25;;
62687;SDS011;48752;51.056;17.056;2023-02-28T10:25:53;11.53;;;6.03;;
62687;SDS011;48752;51.056;17.056;2023-02-28T10:28:21;11.85;;;6.32;;
62687;SDS011;48752;51.056;17.056;2023-02-28T10:30:51;9.07;;;6.22;;
62687;SDS011;48752;51.056;17.056;2023-02-28T10:33:24;17.33;;;6.93;;
62687;SDS011;48752;51.056;17.056;2023-02-28T10:35:54;17.60;;;7.25;;
62687;SDS011;48752;51.056;17.056;2023-02-28T10:38:28;14.43;;;7.20;;
62687;SDS011;48752;51.056;17.056;2023-02-28T10:41:08;10.45;;;7.30;;
62687;SDS011;48752;51.056;17.056;2023-02-28T10:43:35;10.63;;;7.43;;
62687;SDS011;48752;51.056;17.056;2023-02-28T10:46:09;11.07;;;6.68;;
62687;SDS011;48752;51.056;17.056;2023-02-28T10:48:51;9.73;;;6.10;;
62687;SDS011;48752;51.056;17.056;2023-02-28T10:51:40;52.78;;;12.50;;
62687;SDS011;48752;51.056;17.056;2023-02-28T10:54:16;14.70;;;6.57;;
62687;SDS011;48752;51.056;17.056;2023-02-28T10:56:44;10.80;;;6.13;;
62687;SDS011;48752;51.056;17.056;2023-02-28T10:59:27;9.60;;;5.72;;
62687;SDS011;48752;51.056;17.056;2023-02-28T11:01:54;13.90;;;6.90;;
62687;SDS011;48752;51.056;17.056;2023-02-28T11:04:53;9.45;;;5.63;;
62687;SDS011;48752;51.056;17.056;2023-02-28T11:07:21;12.80;;;6.68;;
62687;SDS011;48752;51.056;17.056;2023-02-28T11:09:51;9.23;;;5.75;;
62687;SDS011;48752;51.056;17.056;2023-02-28T11:12:37;10.18;;;6.30;;
62687;SDS011;48752;51.056;17.056;2023-02-28T11:15:05;16.17;;;7.38;;
62687;SDS011;48752;51.056;17.056;2023-02-28T11:20:28;26.30;;;8.68;;
62687;SDS011;48752;51.056;17.056;2023-02-28T11:22:56;11.50;;;6.72;;
62687;SDS011;48752;51.056;17.056;2023-02-28T11:25:24;15.35;;;6.15;;
62687;SDS011;48752;51.056;17.056;2023-02-28T11:27:52;12.18;;;6.40;;
62687;SDS011;48752;51.056;17.056;2023-02-28T11:33:15;12.95;;;6.55;;
62687;SDS011;48752;51.056;17.056;2023-02-28T11:35:45;12.13;;;6.75;;
62687;SDS011;48752;51.056;17.056;2023-02-28T11:38:15;13.10;;;6.75;;
62687;SDS011;48752;51.056;17.056;2023-02-28T11:46:29;11.98;;;6.78;;
62687;SDS011;48752;51.056;17.056;2023-02-28T11:49:34;15.23;;;6.90;;
62687;SDS011;48752;51.056;17.056;2023-02-28T12:03:29;15.68;;;8.63;;
62687;SDS011;48752;51.056;17.056;2023-02-28T12:06:25;12.95;;;7.55;;
62687;SDS011;48752;51.056;17.056;2023-02-28T12:32:06;12.85;;;6.88;;
62687;SDS011;48752;51.056;17.056;2023-02-28T12:34:41;13.73;;;6.80;;
62687;SDS011;48752;51.056;17.056;2023-02-28T12:37:23;14.32;;;7.07;;
62687;SDS011;48752;51.056;17.056;2023-02-28T12:40:04;13.13;;;7.53;;
62687;SDS011;48752;51.056;17.056;2023-02-28T12:42:33;13.80;;;7.32;;
62687;SDS011;48752;51.056;17.056;2023-02-28T12:45:23;17.17;;;7.70;;
62687;SDS011;48752;51.056;17.056;2023-02-28T12:48:00;14.27;;;7.78;;
62687;SDS011;48752;51.056;17.056;2023-02-28T12:50:29;17.20;;;8.32;;
62687;SDS011;48752;51.056;17.056;2023-02-28T12:53:02;13.40;;;7.78;;
62687;SDS011;48752;51.056;17.056;2023-02-28T12:58:41;17.48;;;8.13;;
62687;SDS011;48752;51.056;17.056;2023-02-28T13:03:54;14.95;;;8.00;;
62687;SDS011;48752;51.056;17.056;2023-02-28T13:14:29;17.95;;;9.77;;
62687;SDS011;48752;51.056;17.056;2023-02-28T13:17:12;22.13;;;9.48;;
62687;SDS011;48752;51.056;17.056;2023-02-28T13:19:45;14.40;;;8.65;;
62687;SDS011;48752;51.056;17.056;2023-02-28T13:22:38;16.83;;;8.77;;
62687;SDS011;48752;51.056;17.056;2023-02-28T13:28:11;14.73;;;8.35;;
62687;SDS011;48752;51.056;17.056;2023-02-28T13:36:08;23.80;;;9.93;;
62687;SDS011;48752;51.056;17.056;2023-02-28T13:38:48;17.27;;;9.05;;
62687;SDS011;48752;51.056;17.056;2023-02-28T13:44:21;20.30;;;9.73;;
62687;SDS011;48752;51.056;17.056;2023-02-28T13:49:47;17.70;;;9.55;;
62687;SDS011;48752;51.056;17.056;2023-02-28T13:55:11;17.05;;;8.73;;
62687;SDS011;48752;51.056;17.056;2023-02-28T13:58:10;19.35;;;9.13;;
62687;SDS011;48752;51.056;17.056;2023-02-28T14:06:08;16.05;;;8.88;;
62687;SDS011;48752;51.056;17.056;2023-02-28T14:08:34;20.02;;;10.45;;
62687;SDS011;48752;51.056;17.056;2023-02-28T14:11:41;19.73;;;10.63;;
62687;SDS011;48752;51.056;17.056;2023-02-28T14:14:08;23.48;;;11.38;;
62687;SDS011;48752;51.056;17.056;2023-02-28T14:16:44;19.05;;;10.75;;
62687;SDS011;48752;51.056;17.056;2023-02-28T14:21:49;27.05;;;13.57;;
62687;SDS011;48752;51.056;17.056;2023-02-28T14:38:40;21.92;;;12.20;;
62687;SDS011;48752;51.056;17.056;2023-02-28T14:41:19;22.33;;;11.55;;
62687;SDS011;48752;51.056;17.056;2023-02-28T14:44:17;27.13;;;12.95;;
62687;SDS011;48752;51.056;17.056;2023-02-28T14:46:45;22.48;;;11.50;;
62687;SDS011;48752;51.056;17.056;2023-02-28T14:49:18;24.27;;;13.65;;
62687;SDS011;48752;51.056;17.056;2023-02-28T14:54:51;24.30;;;11.05;;
62687;SDS011;48752;51.056;17.056;2023-02-28T15:00:03;21.38;;;11.98;;
62687;SDS011;48752;51.056;17.056;2023-02-28T15:02:37;30.20;;;13.60;;
62687;SDS011;48752;51.056;17.056;2023-02-28T15:10:40;24.02;;;12.32;;
62687;SDS011;48752;51.056;17.056;2023-02-28T15:13:23;24.67;;;12.85;;
62687;SDS011;48752;51.056;17.056;2023-02-28T15:15:56;21.27;;;10.57;;
62687;SDS011;48752;51.056;17.056;2023-02-28T15:18:27;22.20;;;11.95;;
62687;SDS011;48752;51.056;17.056;2023-02-28T15:21:15;25.92;;;13.13;;
62687;SDS011;48752;51.056;17.056;2023-02-28T15:23:48;20.25;;;10.25;;
62687;SDS011;48752;51.056;17.056;2023-02-28T15:26:39;22.88;;;11.43;;
62687;SDS011;48752;51.056;17.056;2023-02-28T15:29:10;21.38;;;11.45;;
62687;SDS011;48752;51.056;17.056;2023-02-28T15:31:40;20.75;;;10.80;;
62687;SDS011;48752;51.056;17.056;2023-02-28T15:34:19;20.13;;;11.10;;
62687;SDS011;48752;51.056;17.056;2023-02-28T15:36:49;18.05;;;10.60;;
62687;SDS011;48752;51.056;17.056;2023-02-28T15:39:25;18.90;;;10.50;;
62687;SDS011;48752;51.056;17.056;2023-02-28T15:42:38;24.48;;;10.43;;
62687;SDS011;48752;51.056;17.056;2023-02-28T15:44:46;19.48;;;11.18;;
62687;SDS011;48752;51.056;17.056;2023-02-28T15:49:52;23.88;;;11.52;;
62687;SDS011;48752;51.056;17.056;2023-02-28T15:52:20;21.83;;;11.60;;
62687;SDS011;48752;51.056;17.056;2023-02-28T15:54:47;19.80;;;10.80;;
62687;SDS011;48752;51.056;17.056;2023-02-28T15:57:23;25.42;;;11.63;;
62687;SDS011;48752;51.056;17.056;2023-02-28T16:00:00;22.25;;;10.38;;
62687;SDS011;48752;51.056;17.056;2023-02-28T16:02:34;18.92;;;10.10;;
62687;SDS011;48752;51.056;17.056;2023-02-28T16:05:18;17.27;;;10.82;;
62687;SDS011;48752;51.056;17.056;2023-02-28T16:07:44;22.73;;;12.48;;
62687;SDS011;48752;51.056;17.056;2023-02-28T16:10:11;21.83;;;12.60;;
62687;SDS011;48752;51.056;17.056;2023-02-28T16:12:40;24.83;;;14.93;;
62687;SDS011;48752;51.056;17.056;2023-02-28T16:17:51;36.70;;;17.40;;
62687;SDS011;48752;51.056;17.056;2023-02-28T16:20:24;27.88;;;14.65;;
62687;SDS011;48752;51.056;17.056;2023-02-28T16:22:55;27.25;;;14.65;;
62687;SDS011;48752;51.056;17.056;2023-02-28T16:25:33;42.55;;;19.88;;
62687;SDS011;48752;51.056;17.056;2023-02-28T16:28:00;46.60;;;22.35;;
62687;SDS011;48752;51.056;17.056;2023-02-28T16:30:26;36.90;;;22.05;;
62687;SDS011;48752;51.056;17.056;2023-02-28T16:32:56;33.60;;;17.23;;
62687;SDS011;48752;51.056;17.056;2023-02-28T16:35:21;26.38;;;14.32;;
62687;SDS011;48752;51.056;17.056;2023-02-28T16:37:47;28.92;;;17.13;;
62687;SDS011;48752;51.056;17.056;2023-02-28T16:40:17;35.63;;;20.38;;
62687;SDS011;48752;51.056;17.056;2023-02-28T16:42:45;40.78;;;19.83;;
62687;SDS011;48752;51.056;17.056;2023-02-28T16:45:20;60.35;;;25.30;;
62687;SDS011;48752;51.056;17.056;2023-02-28T16:47:47;67.90;;;31.67;;
62687;SDS011;48752;51.056;17.056;2023-02-28T16:50:17;75.05;;;31.52;;
62687;SDS011;48752;51.056;17.056;2023-02-28T16:52:44;44.85;;;19.30;;
62687;SDS011;48752;51.056;17.056;2023-02-28T16:55:10;35.22;;;16.02;;
62687;SDS011;48752;51.056;17.056;2023-02-28T16:57:36;25.88;;;15.18;;
62687;SDS011;48752;51.056;17.056;2023-02-28T17:00:02;47.03;;;20.58;;
62687;SDS011;48752;51.056;17.056;2023-02-28T17:02:29;78.50;;;33.17;;
62687;SDS011;48752;51.056;17.056;2023-02-28T17:04:54;90.80;;;34.75;;
62687;SDS011;48752;51.056;17.056;2023-02-28T17:07:19;108.00;;;44.00;;
62687;SDS011;48752;51.056;17.056;2023-02-28T17:09:45;92.35;;;36.85;;
62687;SDS011;48752;51.056;17.056;2023-02-28T17:12:10;118.10;;;45.33;;
62687;SDS011;48752;51.056;17.056;2023-02-28T17:14:39;84.40;;;35.35;;
62687;SDS011;48752;51.056;17.056;2023-02-28T17:17:05;80.63;;;32.97;;
62687;SDS011;48752;51.056;17.056;2023-02-28T17:19:31;81.40;;;33.35;;
62687;SDS011;48752;51.056;17.056;2023-02-28T17:21:56;83.40;;;33.50;;
62687;SDS011;48752;51.056;17.056;2023-02-28T17:24:22;59.80;;;28.02;;